This is the latest recevied weather packets stored in our database for station/object IZ8GMP-13. If no packets are shown the sender has not sent any weather packets the latest 1 day(s).
| Time | Temp. | Humidity | Pressure | Rain* | Wind** | Luminosity | Snow |
|---|---|---|---|---|---|---|---|
| 1788629672 | 28.33° C | 67% | 1018.2 hPa | - | - | - | - |
| 1788628469 | 28.33° C | 65% | 1017.9 hPa | - | - | - | - |
| 1788627265 | 28.89° C | 64% | 1017.7 hPa | - | - | - | - |
| 1788626062 | 28.89° C | 62% | 1017.8 hPa | - | - | - | - |
| 1788624858 | 28.89° C | 58% | 1017.9 hPa | - | - | - | - |
| 1788623655 | 28.33° C | 64% | 1017.7 hPa | - | - | - | - |
| 1788622451 | 28.89° C | 65% | 1017.8 hPa | - | - | - | - |
| 1788621248 | 28.89° C | 58% | 1017.8 hPa | - | - | - | - |
| 1788620044 | 30° C | 49% | 1017.6 hPa | - | - | - | - |
| 1788618841 | 31.67° C | 42% | 1017.8 hPa | - | - | - | - |
| 1788617637 | 31.67° C | 44% | 1017.8 hPa | - | - | - | - |
| 1788616434 | 31.67° C | 44% | 1018 hPa | - | - | - | - |
| 1788615230 | 32.22° C | 42% | 1018 hPa | - | - | - | - |
| 1788614027 | 32.22° C | 42% | 1018.1 hPa | - | - | - | - |
| 1788612823 | 32.22° C | 40% | 1018.3 hPa | - | - | - | - |
| 1788611620 | 32.22° C | 42% | 1018.4 hPa | - | - | - | - |
| 1788610416 | 31.67° C | 41% | 1018.5 hPa | - | - | - | - |
| 1788609213 | 31.67° C | 42% | 1018.6 hPa | - | - | - | - |
| 1788608010 | 31.67° C | 41% | 1018.8 hPa | - | - | - | - |
| 1788606806 | 31.67° C | 43% | 1018.8 hPa | - | - | - | - |
| 1788605603 | 31.11° C | 44% | 1018.8 hPa | - | - | - | - |
| 1788603196 | 31.67° C | 38% | 1018.8 hPa | - | - | - | - |
| 1788601992 | 31.11° C | 41% | 1018.8 hPa | - | - | - | - |
| 1788600789 | 31.11° C | 41% | 1018.9 hPa | - | - | - | - |
| 1788599585 | 30° C | 50% | 1018.7 hPa | - | - | - | - |
* Rain since midnight (hover to see other rain measurements)
** Current wind speed in m/s (hover to see current wind gust speed)